Map

Track Data

SID SEASON NUMBER BASIN SUBBASIN NAME ISO_TIME NATURE LAT LON WMO_WIND WMO_PRES WMO_AGENCY TRACK_TYPE DIST2LAND LANDFALL IFLAG USA_AGENCY USA_ATCF_ID USA_LAT USA_LON USA_RECORD USA_STATUS USA_WIND USA_PRES USA_SSHS USA_R34_NE USA_R34_SE USA_R34_SW USA_R34_NW USA_R50_NE USA_R50_SE USA_R50_SW USA_R50_NW USA_R64_NE USA_R64_SE USA_R64_SW USA_R64_NW USA_POCI USA_ROCI USA_RMW USA_EYE TOKYO_LAT TOKYO_LON TOKYO_GRADE TOKYO_WIND TOKYO_PRES TOKYO_R50_DIR TOKYO_R50_LONG TOKYO_R50_SHORT TOKYO_R30_DIR TOKYO_R30_LONG TOKYO_R30_SHORT TOKYO_LAND CMA_LAT CMA_LON CMA_CAT CMA_WIND CMA_PRES HKO_LAT HKO_LON HKO_CAT HKO_WIND HKO_PRES NEWDELHI_LAT NEWDELHI_LON NEWDELHI_GRADE NEWDELHI_WIND NEWDELHI_PRES NEWDELHI_CI NEWDELHI_DP NEWDELHI_POCI REUNION_LAT REUNION_LON REUNION_TYPE REUNION_WIND REUNION_PRES REUNION_TNUM REUNION_CI REUNION_RMW REUNION_R34_NE REUNION_R34_SE REUNION_R34_SW REUNION_R34_NW REUNION_R50_NE REUNION_R50_SE REUNION_R50_SW REUNION_R50_NW REUNION_R64_NE REUNION_R64_SE REUNION_R64_SW REUNION_R64_NW BOM_LAT BOM_LON BOM_TYPE BOM_WIND BOM_PRES BOM_TNUM BOM_CI BOM_RMW BOM_R34_NE BOM_R34_SE BOM_R34_SW BOM_R34_NW BOM_R50_NE BOM_R50_SE BOM_R50_SW BOM_R50_NW BOM_R64_NE BOM_R64_SE BOM_R64_SW BOM_R64_NW BOM_ROCI BOM_POCI BOM_EYE BOM_POS_METHOD BOM_PRES_METHOD NADI_LAT NADI_LON NADI_CAT NADI_WIND NADI_PRES WELLINGTON_LAT WELLINGTON_LON WELLINGTON_WIND WELLINGTON_PRES DS824_LAT DS824_LON DS824_STAGE DS824_WIND DS824_PRES TD9636_LAT TD9636_LON TD9636_STAGE TD9636_WIND TD9636_PRES TD9635_LAT TD9635_LON TD9635_WIND TD9635_PRES TD9635_ROCI NEUMANN_LAT NEUMANN_LON NEUMANN_CLASS NEUMANN_WIND NEUMANN_PRES MLC_LAT MLC_LON MLC_CLASS MLC_WIND MLC_PRES USA_GUST BOM_GUST BOM_GUST_PER REUNION_GUST REUNION_GUST_PER USA_SEAHGT USA_SEARAD_NE USA_SEARAD_SE USA_SEARAD_SW USA_SEARAD_NW STORM_SPEED STORM_DIR
1898223N19116 1898 27 WP MM NOT_NAMED 1898-08-11 04:00:00 NR 19.2000 116.400 main 396 385 __________O___ -1 19.2000 116.400 7 2 0
1898223N19116 1898 27 WP MM NOT_NAMED 1898-08-11 06:00:00 NR 19.2570 116.371 main 385 383 __________P___ -1 19.2570 116.371 7 2 334
1898223N19116 1898 27 WP MM NOT_NAMED 1898-08-11 09:00:00 NR 19.3460 116.326 main 383 372 __________P___ -1 19.3460 116.326 7 2 336
1898223N19116 1898 27 WP MM NOT_NAMED 1898-08-11 12:00:00 NR 19.4445 116.277 main 372 349 __________P___ -1 19.4445 116.277 7 2 335
1898223N19116 1898 27 WP MM NOT_NAMED 1898-08-11 15:00:00 NR 19.5579 116.221 main 349 349 __________P___ -1 19.5579 116.221 7 3 338
1898223N19116 1898 27 WP MM NOT_NAMED 1898-08-11 16:00:00 NR 19.6000 116.200 main 349 338 __________O___ -1 19.6000 116.200 3 3 339
1898223N19116 1898 27 WP MM NOT_NAMED 1898-08-11 18:00:00 NR 19.6912 116.155 main 338 325 __________P___ -1 19.6912 116.155 3 3 334
1898223N19116 1898 27 WP MM NOT_NAMED 1898-08-11 21:00:00 NR 19.8406 116.076 main 325 301 __________P___ -1 19.8406 116.076 3 4 331
1898223N19116 1898 27 WP MM NOT_NAMED 1898-08-12 00:00:00 NR 19.9969 115.976 main 301 273 __________P___ -1 19.9969 115.976 3 4 326
1898223N19116 1898 27 WP MM NOT_NAMED 1898-08-12 03:00:00 NR 20.1508 115.849 main 273 273 __________P___ -1 20.1508 115.849 3 4 322
1898223N19116 1898 27 WP MM NOT_NAMED 1898-08-12 04:00:00 NR 20.2000 115.800 main 273 259 __________O___ -1 20.2000 115.800 4 4 313
1898223N19116 1898 27 WP MM NOT_NAMED 1898-08-12 06:00:00 NR 20.2917 115.692 main 259 242 __________P___ -1 20.2917 115.692 4 4 309
1898223N19116 1898 27 WP MM NOT_NAMED 1898-08-12 09:00:00 NR 20.4229 115.505 main 242 226 __________P___ -1 20.4229 115.505 4 5 304
1898223N19116 1898 27 WP MM NOT_NAMED 1898-08-12 12:00:00 NR 20.5467 115.296 main 226 197 __________P___ -1 20.5467 115.296 4 5 301
1898223N19116 1898 27 WP MM NOT_NAMED 1898-08-12 15:00:00 NR 20.6629 115.075 main 197 193 __________P___ -1 20.6629 115.075 4 5 299
1898223N19116 1898 27 WP MM NOT_NAMED 1898-08-12 16:00:00 NR 20.7000 115.000 main 193 178 __________O___ -1 20.7000 115.000 4 4 301
1898223N19116 1898 27 WP MM NOT_NAMED 1898-08-12 18:00:00 NR 20.7774 114.869 main 178 161 __________P___ -1 20.7774 114.869 4 4 301
1898223N19116 1898 27 WP MM NOT_NAMED 1898-08-12 21:00:00 NR 20.8875 114.666 main 161 145 __________P___ -1 20.8875 114.666 4 4 298
1898223N19116 1898 27 WP MM NOT_NAMED 1898-08-13 00:00:00 NR 20.9875 114.445 main 145 134 __________P___ -1 20.9875 114.445 4 5 293
1898223N19116 1898 27 WP MM NOT_NAMED 1898-08-13 03:00:00 NR 21.0745 114.193 main 134 134 __________P___ -1 21.0745 114.193 4 5 289
1898223N19116 1898 27 WP MM NOT_NAMED 1898-08-13 04:00:00 NR 21.1000 114.100 main 135 127 __________O___ -1 21.1000 114.100 4 6 285
1898223N19116 1898 27 WP MM NOT_NAMED 1898-08-13 06:00:00 NR 21.1474 113.898 main 127 99 __________P___ -1 21.1474 113.898 4 6 282
1898223N19116 1898 27 WP MM NOT_NAMED 1898-08-13 09:00:00 NR 21.2059 113.563 main 99 70 __________P___ -1 21.2059 113.563 4 7 279
1898223N19116 1898 27 WP MM NOT_NAMED 1898-08-13 12:00:00 NR 21.2521 113.202 main 70 59 __________P___ -1 21.2521 113.202 4 7 277
1898223N19116 1898 27 WP MM NOT_NAMED 1898-08-13 15:00:00 NR 21.2891 112.826 main 59 56 __________P___ -1 21.2891 112.826 4 7 276
1898223N19116 1898 27 WP MM NOT_NAMED 1898-08-13 16:00:00 NR 21.3000 112.700 main 56 49 __________O___ -1 21.3000 112.700 4 7 275
1898223N19116 1898 27 WP MM NOT_NAMED 1898-08-13 18:00:00 NR 21.3168 112.469 main 49 44 __________P___ -1 21.3168 112.469 4 7 274
1898223N19116 1898 27 WP MM NOT_NAMED 1898-08-13 21:00:00 NR 21.3357 112.116 main 45 15 __________P___ -1 21.3357 112.116 4 7 273
1898223N19116 1898 27 WP MM NOT_NAMED 1898-08-14 00:00:00 NR 21.3556 111.744 main 15 0 __________P___ -1 21.3556 111.744 4 7 274
1898223N19116 1898 27 WP MM NOT_NAMED 1898-08-14 03:00:00 NR 21.3859 111.343 main 0 0 __________P___ -1 21.3859 111.343 4 8 275
1898223N19116 1898 27 WP MM NOT_NAMED 1898-08-14 04:00:00 NR 21.4000 111.200 main 10 10 __________O___ -1 21.4000 111.200 4 8 277
1898223N19116 1898 27 WP MM NOT_NAMED 1898-08-14 06:00:00 NR 21.4359 110.898 main 10 0 __________P___ -1 21.4359 110.898 4 9 278
1898223N19116 1898 27 WP MM NOT_NAMED 1898-08-14 09:00:00 NR 21.5024 110.413 main 0 0 __________P___ -1 21.5024 110.413 4 9 279
1898223N19116 1898 27 WP MM NOT_NAMED 1898-08-14 12:00:00 NR 21.5811 109.902 main 0 0 __________P___ -1 21.5811 109.902 4 10 280
1898223N19116 1898 27 WP MM NOT_NAMED 1898-08-14 15:00:00 NR 21.6691 109.376 main 0 0 __________P___ -1 21.6691 109.376 4 10 280
1898223N19116 1898 27 WP MM NOT_NAMED 1898-08-14 16:00:00 NR 21.7000 109.200 main 0 0 __________O___ -1 21.7000 109.200 4 10 281
1898223N19116 1898 27 WP MM NOT_NAMED 1898-08-14 18:00:00 NR 21.7636 108.849 main 0 0 __________P___ -1 21.7636 108.849 4 10 281
1898223N19116 1898 27 WP MM NOT_NAMED 1898-08-14 21:00:00 NR 21.8625 108.323 main 0 0 __________P___ -1 21.8625 108.323 4 10 282
1898223N19116 1898 27 WP MM NOT_NAMED 1898-08-15 00:00:00 NR 21.9639 107.799 main 0 0 __________P___ -1 21.9639 107.799 4 10 282
1898223N19116 1898 27 WP MM NOT_NAMED 1898-08-15 03:00:00 NR 22.0661 107.275 main 0 0 __________P___ -1 22.0661 107.275 4 10 282
1898223N19116 1898 27 WP MM NOT_NAMED 1898-08-15 04:00:00 NR 22.1000 107.100 main 0 __________O___ -1 22.1000 107.100 7 10 282

Digital Typhoon Data and Search

About IBTrACS Database

This database is a web-friendly format of International Best Track Archive for Climate Stewardship (IBTrACS), a global best track data archive curated by NOAA dating back to 1842.

Updated: 2021-10-08